sensor_id;sensor_type;location;lat;lon;timestamp;pressure;altitude;pressure_sealevel;temperature;humidity
38466;BME280;24244;51.950;5.902;2023-10-13T00:02:13;101056.56;;;18.20;96.23
38466;BME280;24244;51.950;5.902;2023-10-13T00:04:40;101054.69;;;18.20;96.34
38466;BME280;24244;51.950;5.902;2023-10-13T00:07:09;101053.66;;;18.21;96.27
38466;BME280;24244;51.950;5.902;2023-10-13T00:09:37;101046.63;;;18.20;96.42
38466;BME280;24244;51.950;5.902;2023-10-13T00:12:05;101046.63;;;18.20;96.29
38466;BME280;24244;51.950;5.902;2023-10-13T00:14:42;101041.25;;;18.20;96.39
38466;BME280;24244;51.950;5.902;2023-10-13T00:17:12;101041.25;;;18.20;96.59
38466;BME280;24244;51.950;5.902;2023-10-13T00:19:52;101043.94;;;18.20;96.63
38466;BME280;24244;51.950;5.902;2023-10-13T00:22:19;101041.25;;;18.20;96.50
38466;BME280;24244;51.950;5.902;2023-10-13T00:24:51;101036.47;;;18.22;96.52
38466;BME280;24244;51.950;5.902;2023-10-13T00:27:25;101030.03;;;18.23;96.40
38466;BME280;24244;51.950;5.902;2023-10-13T00:30:02;101027.34;;;18.23;96.48
38466;BME280;24244;51.950;5.902;2023-10-13T00:32:51;101028.38;;;18.22;96.52
38466;BME280;24244;51.950;5.902;2023-10-13T00:35:22;101015.97;;;18.21;96.43
38466;BME280;24244;51.950;5.902;2023-10-13T00:37:55;101017.84;;;18.21;96.32
38466;BME280;24244;51.950;5.902;2023-10-13T00:40:24;101012.69;;;18.19;96.55
38466;BME280;24244;51.950;5.902;2023-10-13T00:42:57;101017.03;;;18.20;96.41
38466;BME280;24244;51.950;5.902;2023-10-13T00:45:47;101025.09;;;18.20;96.58
38466;BME280;24244;51.950;5.902;2023-10-13T00:48:22;101024.28;;;18.20;96.60
38466;BME280;24244;51.950;5.902;2023-10-13T00:50:56;101015.16;;;18.21;96.75
38466;BME280;24244;51.950;5.902;2023-10-13T00:53:25;101012.25;;;18.22;96.35
38466;BME280;24244;51.950;5.902;2023-10-13T00:55:52;101004.97;;;18.23;96.44
38466;BME280;24244;51.950;5.902;2023-10-13T00:58:23;101013.06;;;18.23;96.51
38466;BME280;24244;51.950;5.902;2023-10-13T01:00:53;101001.47;;;18.22;96.41
38466;BME280;24244;51.950;5.902;2023-10-13T01:03:23;101003.94;;;18.24;96.46
38466;BME280;24244;51.950;5.902;2023-10-13T01:05:55;100989.44;;;18.25;96.49
38466;BME280;24244;51.950;5.902;2023-10-13T01:08:32;100988.63;;;18.24;96.42
38466;BME280;24244;51.950;5.902;2023-10-13T01:11:01;100985.69;;;18.26;96.46
38466;BME280;24244;51.950;5.902;2023-10-13T01:13:28;100986.50;;;18.26;96.46
38466;BME280;24244;51.950;5.902;2023-10-13T01:15:59;100981.09;;;18.26;96.34
38466;BME280;24244;51.950;5.902;2023-10-13T01:18:28;100976.56;;;18.27;96.27
38466;BME280;24244;51.950;5.902;2023-10-13T01:20:55;100983.00;;;18.26;96.28
38466;BME280;24244;51.950;5.902;2023-10-13T01:23:27;100974.94;;;18.26;96.36
38466;BME280;24244;51.950;5.902;2023-10-13T01:25:55;100966.88;;;18.26;96.39
38466;BME280;24244;51.950;5.902;2023-10-13T01:28:25;100969.56;;;18.26;96.27
38466;BME280;24244;51.950;5.902;2023-10-13T01:30:52;100964.19;;;18.26;96.39
38466;BME280;24244;51.950;5.902;2023-10-13T01:33:20;100962.53;;;18.25;96.34
38466;BME280;24244;51.950;5.902;2023-10-13T01:35:55;100962.53;;;18.25;96.42
38466;BME280;24244;51.950;5.902;2023-10-13T01:38:26;100956.09;;;18.26;96.39
38466;BME280;24244;51.950;5.902;2023-10-13T01:41:00;100952.59;;;18.25;96.30
38466;BME280;24244;51.950;5.902;2023-10-13T01:43:28;100946.59;;;18.23;96.41
38466;BME280;24244;51.950;5.902;2023-10-13T01:45:55;100945.56;;;18.24;96.46
38466;BME280;24244;51.950;5.902;2023-10-13T01:48:22;100946.38;;;18.25;96.48
38466;BME280;24244;51.950;5.902;2023-10-13T01:50:49;100944.50;;;18.25;96.56
38466;BME280;24244;51.950;5.902;2023-10-13T01:53:23;100941.81;;;18.25;96.44
38466;BME280;24244;51.950;5.902;2023-10-13T01:55:51;100937.25;;;18.26;96.37
38466;BME280;24244;51.950;5.902;2023-10-13T01:58:18;100924.84;;;18.25;96.19
38466;BME280;24244;51.950;5.902;2023-10-13T02:00:50;100923.22;;;18.24;96.52
38466;BME280;24244;51.950;5.902;2023-10-13T02:03:18;100926.94;;;18.23;96.44
38466;BME280;24244;51.950;5.902;2023-10-13T02:05:46;100915.97;;;18.24;96.58
38466;BME280;24244;51.950;5.902;2023-10-13T02:08:14;100917.59;;;18.25;96.41
38466;BME280;24244;51.950;5.902;2023-10-13T02:10:45;100906.84;;;18.25;96.50
38466;BME280;24244;51.950;5.902;2023-10-13T02:13:15;100914.09;;;18.25;96.37
38466;BME280;24244;51.950;5.902;2023-10-13T02:15:46;100909.75;;;18.24;96.30
38466;BME280;24244;51.950;5.902;2023-10-13T02:18:16;100907.06;;;18.24;96.36
38466;BME280;24244;51.950;5.902;2023-10-13T02:20:53;100900.03;;;18.23;96.46
38466;BME280;24244;51.950;5.902;2023-10-13T02:23:24;100896.53;;;18.22;96.60
38466;BME280;24244;51.950;5.902;2023-10-13T02:25:51;100896.53;;;18.22;96.41
38466;BME280;24244;51.950;5.902;2023-10-13T02:28:28;100897.34;;;18.23;96.47
38466;BME280;24244;51.950;5.902;2023-10-13T02:31:02;100895.47;;;18.23;96.39
38466;BME280;24244;51.950;5.902;2023-10-13T02:33:30;100887.41;;;18.23;96.74
38466;BME280;24244;51.950;5.902;2023-10-13T02:35:57;100882.03;;;18.23;96.44
38466;BME280;24244;51.950;5.902;2023-10-13T02:38:25;100876.88;;;18.22;96.34
38466;BME280;24244;51.950;5.902;2023-10-13T02:41:09;100872.31;;;18.22;96.44
38466;BME280;24244;51.950;5.902;2023-10-13T02:43:41;100867.97;;;18.21;96.42
38466;BME280;24244;51.950;5.902;2023-10-13T02:46:10;100864.47;;;18.21;96.45
38466;BME280;24244;51.950;5.902;2023-10-13T02:48:37;100846.69;;;18.20;96.35
38466;BME280;24244;51.950;5.902;2023-10-13T02:51:08;100854.53;;;18.21;96.38
38466;BME280;24244;51.950;5.902;2023-10-13T02:53:45;100852.66;;;18.22;96.36
38466;BME280;24244;51.950;5.902;2023-10-13T02:56:15;100844.81;;;18.20;96.48
38466;BME280;24244;51.950;5.902;2023-10-13T02:58:50;100832.19;;;18.21;96.40
38466;BME280;24244;51.950;5.902;2023-10-13T03:01:20;100842.13;;;18.20;96.25
38466;BME280;24244;51.950;5.902;2023-10-13T03:03:50;100828.66;;;18.20;96.37
38466;BME280;24244;51.950;5.902;2023-10-13T03:06:22;100832.41;;;18.19;96.38
38466;BME280;24244;51.950;5.902;2023-10-13T03:08:52;100825.41;;;18.18;96.41
38466;BME280;24244;51.950;5.902;2023-10-13T03:11:19;100820.84;;;18.19;96.44
38466;BME280;24244;51.950;5.902;2023-10-13T03:13:50;100827.28;;;18.18;96.45
38466;BME280;24244;51.950;5.902;2023-10-13T03:16:19;100820.25;;;18.17;96.30
38466;BME280;24244;51.950;5.902;2023-10-13T03:18:47;100807.84;;;18.16;96.38
38466;BME280;24244;51.950;5.902;2023-10-13T03:21:23;100806.22;;;18.15;96.48
38466;BME280;24244;51.950;5.902;2023-10-13T03:23:58;100795.47;;;18.15;96.32
38466;BME280;24244;51.950;5.902;2023-10-13T03:26:31;100797.31;;;18.14;96.46
38466;BME280;24244;51.950;5.902;2023-10-13T03:29:06;100780.38;;;18.14;96.42
38466;BME280;24244;51.950;5.902;2023-10-13T03:31:35;100772.06;;;18.15;96.52
38466;BME280;24244;51.950;5.902;2023-10-13T03:34:04;100780.13;;;18.15;96.30
38466;BME280;24244;51.950;5.902;2023-10-13T03:36:33;100769.38;;;18.15;96.34
38466;BME280;24244;51.950;5.902;2023-10-13T03:39:19;100771.25;;;18.15;96.34
38466;BME280;24244;51.950;5.902;2023-10-13T03:41:49;100764.00;;;18.15;96.32
38466;BME280;24244;51.950;5.902;2023-10-13T03:44:24;100771.25;;;18.15;96.35
38466;BME280;24244;51.950;5.902;2023-10-13T03:46:57;100754.28;;;18.14;96.51
38466;BME280;24244;51.950;5.902;2023-10-13T03:49:26;100743.53;;;18.14;96.56
38466;BME280;24244;51.950;5.902;2023-10-13T03:51:56;100746.22;;;18.14;96.57
38466;BME280;24244;51.950;5.902;2023-10-13T03:54:24;100730.88;;;18.15;96.46
38466;BME280;24244;51.950;5.902;2023-10-13T03:56:54;100737.69;;;18.17;96.62
38466;BME280;24244;51.950;5.902;2023-10-13T03:59:24;100720.50;;;18.18;96.34
38466;BME280;24244;51.950;5.902;2023-10-13T04:02:01;100726.91;;;18.17;96.46
38466;BME280;24244;51.950;5.902;2023-10-13T04:04:34;100726.09;;;18.17;96.37
38466;BME280;24244;51.950;5.902;2023-10-13T04:07:15;100712.41;;;18.18;96.34
38466;BME280;24244;51.950;5.902;2023-10-13T04:10:01;100716.16;;;18.17;96.44
38466;BME280;24244;51.950;5.902;2023-10-13T04:12:49;100702.72;;;18.17;96.52
38466;BME280;24244;51.950;5.902;2023-10-13T04:15:36;100696.72;;;18.15;96.55
38466;BME280;24244;51.950;5.902;2023-10-13T04:18:28;100682.47;;;18.15;96.49
38466;BME280;24244;51.950;5.902;2023-10-13T04:21:13;100678.72;;;18.16;96.50
38466;BME280;24244;51.950;5.902;2023-10-13T04:24:06;100668.19;;;18.14;96.57
38466;BME280;24244;51.950;5.902;2023-10-13T04:26:52;100669.00;;;18.15;96.57
38466;BME280;24244;51.950;5.902;2023-10-13T04:29:38;100663.63;;;18.15;96.55
38466;BME280;24244;51.950;5.902;2023-10-13T04:32:38;100652.06;;;18.14;96.68
38466;BME280;24244;51.950;5.902;2023-10-13T04:35:08;100650.19;;;18.15;96.74
38466;BME280;24244;51.950;5.902;2023-10-13T04:37:36;100648.31;;;18.15;96.82
38466;BME280;24244;51.950;5.902;2023-10-13T04:40:26;100614.97;;;18.16;96.69
38466;BME280;24244;51.950;5.902;2023-10-13T04:42:55;100610.66;;;18.15;96.81
38466;BME280;24244;51.950;5.902;2023-10-13T04:45:31;100605.25;;;18.15;96.71
38466;BME280;24244;51.950;5.902;2023-10-13T04:48:00;100599.88;;;18.15;96.90
38466;BME280;24244;51.950;5.902;2023-10-13T04:50:47;100602.56;;;18.15;97.01
38466;BME280;24244;51.950;5.902;2023-10-13T04:53:18;100586.44;;;18.15;97.02
38466;BME280;24244;51.950;5.902;2023-10-13T04:56:01;100586.44;;;18.15;96.93
38466;BME280;24244;51.950;5.902;2023-10-13T04:58:31;100584.31;;;18.17;96.97
38466;BME280;24244;51.950;5.902;2023-10-13T05:01:00;100578.13;;;18.17;96.94
38466;BME280;24244;51.950;5.902;2023-10-13T05:03:48;100576.25;;;18.17;97.09
38466;BME280;24244;51.950;5.902;2023-10-13T05:06:33;100567.38;;;18.17;97.25
38466;BME280;24244;51.950;5.902;2023-10-13T05:09:13;100567.13;;;18.18;97.32
38466;BME280;24244;51.950;5.902;2023-10-13T05:11:59;100574.94;;;18.20;97.50
38466;BME280;24244;51.950;5.902;2023-10-13T05:14:44;100580.09;;;18.21;97.43
38466;BME280;24244;51.950;5.902;2023-10-13T05:17:30;100575.53;;;18.22;97.76
38466;BME280;24244;51.950;5.902;2023-10-13T05:20:17;100586.88;;;18.24;98.04
38466;BME280;24244;51.950;5.902;2023-10-13T05:23:03;100583.94;;;18.25;98.06
38466;BME280;24244;51.950;5.902;2023-10-13T05:25:49;100582.63;;;18.28;98.15
38466;BME280;24244;51.950;5.902;2023-10-13T05:28:34;100578.66;;;18.30;98.21
38466;BME280;24244;51.950;5.902;2023-10-13T05:31:20;100583.53;;;18.33;98.29
38466;BME280;24244;51.950;5.902;2023-10-13T05:34:05;100573.34;;;18.35;98.24
38466;BME280;24244;51.950;5.902;2023-10-13T05:36:52;100574.75;;;18.38;98.46
38466;BME280;24244;51.950;5.902;2023-10-13T05:39:38;100578.81;;;18.40;98.62
38466;BME280;24244;51.950;5.902;2023-10-13T05:42:23;100569.69;;;18.42;98.65
38466;BME280;24244;51.950;5.902;2023-10-13T05:45:09;100568.41;;;18.44;98.71
38466;BME280;24244;51.950;5.902;2023-10-13T05:47:45;100570.03;;;18.45;98.97
38466;BME280;24244;51.950;5.902;2023-10-13T05:50:12;100553.38;;;18.48;99.05
38466;BME280;24244;51.950;5.902;2023-10-13T05:52:56;100540.50;;;18.50;99.08
38466;BME280;24244;51.950;5.902;2023-10-13T05:55:25;100548.09;;;18.53;99.08
38466;BME280;24244;51.950;5.902;2023-10-13T05:58:11;100551.16;;;18.57;99.01
38466;BME280;24244;51.950;5.902;2023-10-13T06:00:57;100543.66;;;18.59;99.10
38466;BME280;24244;51.950;5.902;2023-10-13T06:03:43;100552.31;;;18.61;98.98
38466;BME280;24244;51.950;5.902;2023-10-13T06:06:29;100548.53;;;18.62;99.09
38466;BME280;24244;51.950;5.902;2023-10-13T06:09:15;100555.31;;;18.64;99.15
38466;BME280;24244;51.950;5.902;2023-10-13T06:12:03;100561.50;;;18.65;99.01
38466;BME280;24244;51.950;5.902;2023-10-13T06:14:49;100549.69;;;18.66;98.98
38466;BME280;24244;51.950;5.902;2023-10-13T06:17:34;100537.88;;;18.67;99.11
38466;BME280;24244;51.950;5.902;2023-10-13T06:20:19;100552.97;;;18.68;99.23
38466;BME280;24244;51.950;5.902;2023-10-13T06:23:05;100539.50;;;18.68;99.00
38466;BME280;24244;51.950;5.902;2023-10-13T06:25:59;100552.47;;;18.71;99.37
38466;BME280;24244;51.950;5.902;2023-10-13T06:28:44;100537.94;;;18.72;99.24
38466;BME280;24244;51.950;5.902;2023-10-13T06:31:13;100540.16;;;18.75;99.24
38466;BME280;24244;51.950;5.902;2023-10-13T06:33:49;100533.69;;;18.76;99.23
38466;BME280;24244;51.950;5.902;2023-10-13T06:36:16;100536.94;;;18.78;99.37
38466;BME280;24244;51.950;5.902;2023-10-13T06:38:45;100525.13;;;18.79;99.02
38466;BME280;24244;51.950;5.902;2023-10-13T06:41:20;100525.94;;;18.80;99.21
38466;BME280;24244;51.950;5.902;2023-10-13T06:43:57;100527.34;;;18.82;99.17
38466;BME280;24244;51.950;5.902;2023-10-13T06:46:27;100525.47;;;18.83;99.17
38466;BME280;24244;51.950;5.902;2023-10-13T06:48:56;100530.56;;;18.84;99.12
38466;BME280;24244;51.950;5.902;2023-10-13T06:51:26;100526.81;;;18.85;98.98
38466;BME280;24244;51.950;5.902;2023-10-13T06:53:58;100518.75;;;18.85;99.15
38466;BME280;24244;51.950;5.902;2023-10-13T06:56:26;100510.66;;;18.85;99.19
38466;BME280;24244;51.950;5.902;2023-10-13T06:58:56;100519.31;;;18.87;99.24
38466;BME280;24244;51.950;5.902;2023-10-13T07:01:26;100512.06;;;18.88;99.20
38466;BME280;24244;51.950;5.902;2023-10-13T07:03:54;100502.09;;;18.88;99.03
38466;BME280;24244;51.950;5.902;2023-10-13T07:06:22;100494.03;;;18.88;99.32
38466;BME280;24244;51.950;5.902;2023-10-13T07:08:49;100496.72;;;18.88;99.22
38466;BME280;24244;51.950;5.902;2023-10-13T07:11:19;100490.28;;;18.89;99.21
38466;BME280;24244;51.950;5.902;2023-10-13T07:14:02;100493.78;;;18.90;99.28
38466;BME280;24244;51.950;5.902;2023-10-13T07:16:54;100496.47;;;18.90;99.25
38466;BME280;24244;51.950;5.902;2023-10-13T07:19:25;100492.97;;;18.89;99.39
38466;BME280;24244;51.950;5.902;2023-10-13T07:21:55;100491.09;;;18.90;99.38
38466;BME280;24244;51.950;5.902;2023-10-13T07:24:25;100484.63;;;18.91;99.40
38466;BME280;24244;51.950;5.902;2023-10-13T07:26:54;100474.66;;;18.91;99.33
38466;BME280;24244;51.950;5.902;2023-10-13T07:29:31;100471.72;;;18.93;99.26
38466;BME280;24244;51.950;5.902;2023-10-13T07:32:03;100470.91;;;18.92;99.23
38466;BME280;24244;51.950;5.902;2023-10-13T07:34:31;100467.16;;;18.93;99.28
38466;BME280;24244;51.950;5.902;2023-10-13T07:36:59;100461.19;;;18.91;99.23
38466;BME280;24244;51.950;5.902;2023-10-13T07:39:28;100463.66;;;18.93;99.14
38466;BME280;24244;51.950;5.902;2023-10-13T07:41:55;100446.44;;;18.94;99.28
38466;BME280;24244;51.950;5.902;2023-10-13T07:44:34;100447.47;;;18.93;99.13
38466;BME280;24244;51.950;5.902;2023-10-13T07:47:02;100444.56;;;18.94;99.17
38466;BME280;24244;51.950;5.902;2023-10-13T07:49:32;100441.03;;;18.94;99.20
38466;BME280;24244;51.950;5.902;2023-10-13T07:52:00;100435.66;;;18.94;99.10
38466;BME280;24244;51.950;5.902;2023-10-13T07:54:41;100431.09;;;18.94;99.17
38466;BME280;24244;51.950;5.902;2023-10-13T07:57:10;100429.22;;;18.95;99.06
38466;BME280;24244;51.950;5.902;2023-10-13T07:59:43;100424.63;;;18.95;99.24
38466;BME280;24244;51.950;5.902;2023-10-13T08:02:19;100432.72;;;18.95;99.11
38466;BME280;24244;51.950;5.902;2023-10-13T08:05:09;100424.38;;;18.97;99.01
38466;BME280;24244;51.950;5.902;2023-10-13T08:07:36;100426.28;;;18.96;99.04
38466;BME280;24244;51.950;5.902;2023-10-13T08:10:07;100404.72;;;18.96;99.23
38466;BME280;24244;51.950;5.902;2023-10-13T08:12:36;100414.41;;;18.97;99.09
38466;BME280;24244;51.950;5.902;2023-10-13T08:15:07;100404.44;;;18.98;99.28
38466;BME280;24244;51.950;5.902;2023-10-13T08:17:48;100418.72;;;18.98;99.18
38466;BME280;24244;51.950;5.902;2023-10-13T08:20:19;100413.09;;;19.00;99.44
38466;BME280;24244;51.950;5.902;2023-10-13T08:22:48;100402.31;;;19.00;99.32
38466;BME280;24244;51.950;5.902;2023-10-13T08:25:16;100413.34;;;18.98;99.42
38466;BME280;24244;51.950;5.902;2023-10-13T08:28:09;100425.75;;;18.99;99.47
38466;BME280;24244;51.950;5.902;2023-10-13T08:31:07;100416.38;;;19.02;99.52
38466;BME280;24244;51.950;5.902;2023-10-13T08:33:49;100406.41;;;19.02;99.42
38466;BME280;24244;51.950;5.902;2023-10-13T08:36:17;100407.78;;;19.05;99.46
38466;BME280;24244;51.950;5.902;2023-10-13T08:38:55;100406.47;;;19.07;99.15
38466;BME280;24244;51.950;5.902;2023-10-13T08:41:23;100407.84;;;19.10;99.33
38466;BME280;24244;51.950;5.902;2023-10-13T08:43:51;100417.56;;;19.11;99.35
38466;BME280;24244;51.950;5.902;2023-10-13T08:46:21;100414.59;;;19.12;99.21
38466;BME280;24244;51.950;5.902;2023-10-13T08:49:02;100410.84;;;19.13;99.32
38466;BME280;24244;51.950;5.902;2023-10-13T08:51:36;100389.03;;;19.15;99.14
38466;BME280;24244;51.950;5.902;2023-10-13T08:54:17;100397.69;;;19.17;99.09
38466;BME280;24244;51.950;5.902;2023-10-13T08:57:01;100375.88;;;19.18;99.24
38466;BME280;24244;51.950;5.902;2023-10-13T08:59:47;100379.72;;;19.23;99.30
38466;BME280;24244;51.950;5.902;2023-10-13T09:02:22;100370.56;;;19.24;98.85
38466;BME280;24244;51.950;5.902;2023-10-13T09:05:11;100367.34;;;19.27;98.83
38466;BME280;24244;51.950;5.902;2023-10-13T09:07:57;100363.59;;;19.28;98.97
38466;BME280;24244;51.950;5.902;2023-10-13T09:10:36;100368.72;;;19.29;98.82
38466;BME280;24244;51.950;5.902;2023-10-13T09:13:34;100363.09;;;19.31;98.56
38466;BME280;24244;51.950;5.902;2023-10-13T09:16:12;100358.00;;;19.34;98.65
38466;BME280;24244;51.950;5.902;2023-10-13T09:19:03;100365.03;;;19.35;98.33
38466;BME280;24244;51.950;5.902;2023-10-13T09:21:38;100358.31;;;19.38;98.24
38466;BME280;24244;51.950;5.902;2023-10-13T09:24:09;100354.56;;;19.39;98.14
38466;BME280;24244;51.950;5.902;2023-10-13T09:27:03;100352.16;;;19.42;98.05
38466;BME280;24244;51.950;5.902;2023-10-13T09:29:32;100360.00;;;19.44;97.89
38466;BME280;24244;51.950;5.902;2023-10-13T09:32:08;100341.13;;;19.44;97.89
38466;BME280;24244;51.950;5.902;2023-10-13T09:34:42;100343.31;;;19.47;97.83
38466;BME280;24244;51.950;5.902;2023-10-13T09:37:11;100332.53;;;19.47;97.68
38466;BME280;24244;51.950;5.902;2023-10-13T09:39:42;100325.03;;;19.49;97.66
38466;BME280;24244;51.950;5.902;2023-10-13T09:42:19;100337.44;;;19.50;97.39
38466;BME280;24244;51.950;5.902;2023-10-13T09:44:46;100332.59;;;19.52;97.45
38466;BME280;24244;51.950;5.902;2023-10-13T09:47:21;100330.44;;;19.54;97.24
38466;BME280;24244;51.950;5.902;2023-10-13T09:50:04;100330.44;;;19.54;97.13
38466;BME280;24244;51.950;5.902;2023-10-13T09:52:41;100324.81;;;19.55;97.01
38466;BME280;24244;51.950;5.902;2023-10-13T09:55:17;100322.94;;;19.56;96.80
38466;BME280;24244;51.950;5.902;2023-10-13T09:57:53;100315.91;;;19.55;96.70
38466;BME280;24244;51.950;5.902;2023-10-13T10:00:29;100319.16;;;19.57;96.53
38466;BME280;24244;51.950;5.902;2023-10-13T10:03:14;100324.56;;;19.57;96.39
38466;BME280;24244;51.950;5.902;2023-10-13T10:05:54;100329.69;;;19.59;96.27
38466;BME280;24244;51.950;5.902;2023-10-13T10:08:30;100326.75;;;19.60;96.18
38466;BME280;24244;51.950;5.902;2023-10-13T10:11:19;100319.22;;;19.62;95.80
38466;BME280;24244;51.950;5.902;2023-10-13T10:13:53;100303.59;;;19.64;95.60
38466;BME280;24244;51.950;5.902;2023-10-13T10:16:37;100307.09;;;19.65;95.44
38466;BME280;24244;51.950;5.902;2023-10-13T10:19:08;100314.13;;;19.66;95.33
38466;BME280;24244;51.950;5.902;2023-10-13T10:21:37;100310.09;;;19.68;95.10
38466;BME280;24244;51.950;5.902;2023-10-13T10:24:14;100305.50;;;19.69;94.96
38466;BME280;24244;51.950;5.902;2023-10-13T10:26:50;100301.25;;;19.73;94.60
38466;BME280;24244;51.950;5.902;2023-10-13T10:29:18;100295.84;;;19.73;94.45
38466;BME280;24244;51.950;5.902;2023-10-13T10:31:45;100287.50;;;19.74;94.52
38466;BME280;24244;51.950;5.902;2023-10-13T10:34:13;100291.03;;;19.75;94.39
38466;BME280;24244;51.950;5.902;2023-10-13T10:36:46;100279.41;;;19.74;94.33
38466;BME280;24244;51.950;5.902;2023-10-13T10:39:13;100281.84;;;19.76;94.09
38466;BME280;24244;51.950;5.902;2023-10-13T10:41:45;100279.94;;;19.76;94.05
38466;BME280;24244;51.950;5.902;2023-10-13T10:44:18;100280.75;;;19.77;94.03
38466;BME280;24244;51.950;5.902;2023-10-13T10:47:10;100268.34;;;19.76;93.79
38466;BME280;24244;51.950;5.902;2023-10-13T10:49:38;100263.78;;;19.76;93.58
38466;BME280;24244;51.950;5.902;2023-10-13T10:52:09;100259.75;;;19.79;93.30
38466;BME280;24244;51.950;5.902;2023-10-13T10:54:45;100253.28;;;19.80;93.29
38466;BME280;24244;51.950;5.902;2023-10-13T10:57:19;100260.03;;;19.82;93.13
38466;BME280;24244;51.950;5.902;2023-10-13T10:59:46;100246.53;;;19.82;92.97
38466;BME280;24244;51.950;5.902;2023-10-13T11:02:15;100245.47;;;19.83;92.87
38466;BME280;24244;51.950;5.902;2023-10-13T11:04:50;100239.84;;;19.85;92.79
38466;BME280;24244;51.950;5.902;2023-10-13T11:07:24;100238.75;;;19.86;92.83
38466;BME280;24244;51.950;5.902;2023-10-13T11:09:51;100240.41;;;19.87;92.72
38466;BME280;24244;51.950;5.902;2023-10-13T11:12:20;100233.94;;;19.88;92.71
38466;BME280;24244;51.950;5.902;2023-10-13T11:15:01;100224.47;;;19.90;92.58
38466;BME280;24244;51.950;5.902;2023-10-13T11:17:29;100235.84;;;19.92;92.32
38466;BME280;24244;51.950;5.902;2023-10-13T11:20:10;100240.72;;;19.96;92.38
38466;BME280;24244;51.950;5.902;2023-10-13T11:22:48;100216.97;;;19.98;91.71
38466;BME280;24244;51.950;5.902;2023-10-13T11:25:22;100222.94;;;20.00;91.37
38466;BME280;24244;51.950;5.902;2023-10-13T11:27:49;100212.69;;;20.02;91.32
38466;BME280;24244;51.950;5.902;2023-10-13T11:30:17;100215.13;;;20.03;91.06
38466;BME280;24244;51.950;5.902;2023-10-13T11:32:57;100207.31;;;20.07;90.53
38466;BME280;24244;51.950;5.902;2023-10-13T11:35:24;100215.16;;;20.08;89.95
38466;BME280;24244;51.950;5.902;2023-10-13T11:37:53;100205.72;;;20.11;89.14
38466;BME280;24244;51.950;5.902;2023-10-13T11:40:24;100192.78;;;20.13;88.41
38466;BME280;24244;51.950;5.902;2023-10-13T11:43:10;100181.22;;;20.17;87.58
38466;BME280;24244;51.950;5.902;2023-10-13T11:45:47;100193.59;;;20.18;87.31
38466;BME280;24244;51.950;5.902;2023-10-13T11:48:45;100177.72;;;20.22;87.33
38466;BME280;24244;51.950;5.902;2023-10-13T11:51:14;100180.97;;;20.24;87.09
38466;BME280;24244;51.950;5.902;2023-10-13T11:53:45;100183.94;;;20.27;86.61
38466;BME280;24244;51.950;5.902;2023-10-13T11:56:19;100160.19;;;20.29;86.50
38466;BME280;24244;51.950;5.902;2023-10-13T11:58:51;100149.69;;;20.33;85.97
38466;BME280;24244;51.950;5.902;2023-10-13T12:01:18;100154.59;;;20.36;85.80
38466;BME280;24244;51.950;5.902;2023-10-13T12:03:47;100163.22;;;20.38;85.65
38466;BME280;24244;51.950;5.902;2023-10-13T12:06:35;100161.34;;;20.39;85.64
38466;BME280;24244;51.950;5.902;2023-10-13T12:09:06;100157.28;;;20.41;85.72
38466;BME280;24244;51.950;5.902;2023-10-13T12:11:47;100154.06;;;20.44;85.34
38466;BME280;24244;51.950;5.902;2023-10-13T12:14:18;100151.63;;;20.48;84.89
38466;BME280;24244;51.950;5.902;2023-10-13T12:17:04;100157.84;;;20.53;84.88
38466;BME280;24244;51.950;5.902;2023-10-13T12:19:31;100155.19;;;20.58;84.39
38466;BME280;24244;51.950;5.902;2023-10-13T12:22:01;100145.72;;;20.61;84.40
38466;BME280;24244;51.950;5.902;2023-10-13T12:24:35;100147.09;;;20.63;84.54
38466;BME280;24244;51.950;5.902;2023-10-13T12:27:03;100170.06;;;20.66;84.45
38466;BME280;24244;51.950;5.902;2023-10-13T12:29:45;100159.78;;;20.68;83.86
38466;BME280;24244;51.950;5.902;2023-10-13T12:32:14;100144.94;;;20.70;83.88
38466;BME280;24244;51.950;5.902;2023-10-13T12:34:41;100154.16;;;20.75;83.65
38466;BME280;24244;51.950;5.902;2023-10-13T12:37:27;100155.22;;;20.79;83.48
38466;BME280;24244;51.950;5.902;2023-10-13T12:40:15;100138.50;;;20.82;82.89
38466;BME280;24244;51.950;5.902;2023-10-13T12:43:01;100154.13;;;20.85;82.86
38466;BME280;24244;51.950;5.902;2023-10-13T12:45:47;100142.81;;;20.88;82.79
38466;BME280;24244;51.950;5.902;2023-10-13T12:48:33;100153.88;;;20.91;82.54
38466;BME280;24244;51.950;5.902;2023-10-13T12:51:19;100143.34;;;20.95;82.20
38466;BME280;24244;51.950;5.902;2023-10-13T12:53:47;100133.06;;;20.97;81.83
38466;BME280;24244;51.950;5.902;2023-10-13T12:56:17;100143.34;;;21.00;81.84
38466;BME280;24244;51.950;5.902;2023-10-13T12:58:44;100134.16;;;21.01;81.43
38466;BME280;24244;51.950;5.902;2023-10-13T13:01:18;100134.41;;;21.04;80.80
38466;BME280;24244;51.950;5.902;2023-10-13T13:03:49;100142.00;;;21.07;80.70
38466;BME280;24244;51.950;5.902;2023-10-13T13:06:17;100145.25;;;21.09;80.63
38466;BME280;24244;51.950;5.902;2023-10-13T13:08:44;100135.78;;;21.12;80.34
38466;BME280;24244;51.950;5.902;2023-10-13T13:11:13;100122.81;;;21.14;80.45
38466;BME280;24244;51.950;5.902;2023-10-13T13:13:41;100139.59;;;21.16;80.15
38466;BME280;24244;51.950;5.902;2023-10-13T13:16:08;100124.72;;;21.19;80.13
38466;BME280;24244;51.950;5.902;2023-10-13T13:18:36;100139.59;;;21.21;79.91
38466;BME280;24244;51.950;5.902;2023-10-13T13:21:03;100135.25;;;21.25;79.65
38466;BME280;24244;51.950;5.902;2023-10-13T13:23:32;100141.22;;;21.27;79.77
38466;BME280;24244;51.950;5.902;2023-10-13T13:26:01;100138.25;;;21.29;79.67
38466;BME280;24244;51.950;5.902;2023-10-13T13:28:28;100134.19;;;21.31;79.39
38466;BME280;24244;51.950;5.902;2023-10-13T13:31:06;100133.09;;;21.32;79.76